Belogorsk, Russia
Current Conditions -  °F | °C
As of 10:00 AM on Sunday 26 Oct 2014 (Local Time) from UHBB Reporting Station
Snow Showers Snow Showers  
Wind Chill: 19°   Ceiling: 200
Heat Index: 32°   Visibility: 0.06mi
Dew Point: 30°   Wind: 22mph
Humidity: 93%   Direction: 10°N
Pressure: 29.8"   Gusts: 34mph
Location:  50.92°N, 128.47°E
Report Text: UHBB 260100Z 01010G15MPS 0100 +SHSN VV002 M00/M01 Q1009 TEMPO02010G15MPS RMK QBB060 QFE739/0986 36691030
Loading
Personal Weather Stations






























Interactive Weather Map
Tropical Storm Tracking
New forecast layout! Learn more

10-Day Weather Forecast

Advertisements
Track Severe Weather on mobile